createdAt,value
2018-07-07T00:00:00.219Z,62.50
2018-07-07T00:01:00.389Z,65.43
2018-07-07T00:02:00.560Z,62.74
2018-07-07T00:03:00.727Z,62.74
2018-07-07T00:06:43.167Z,53.22
2018-07-07T00:07:43.335Z,53.22
2018-07-07T00:08:43.508Z,66.65
2018-07-07T00:09:43.681Z,56.15
2018-07-07T00:10:43.850Z,56.88
2018-07-07T00:11:44.019Z,65.67
2018-07-07T00:12:44.186Z,68.85
2018-07-07T00:13:44.355Z,63.96
2018-07-07T00:14:44.522Z,61.28
2018-07-07T00:15:44.689Z,60.30
2018-07-07T00:16:44.867Z,48.83
2018-07-07T00:17:45.023Z,42.72
2018-07-07T00:18:45.176Z,47.61
2018-07-07T00:19:45.342Z,42.97
2018-07-07T00:23:27.831Z,48.10
2018-07-07T00:24:28.002Z,52.00
2018-07-07T00:25:28.167Z,63.23
2018-07-07T00:26:28.336Z,61.77
2018-07-07T00:27:28.502Z,43.95
2018-07-07T00:28:28.672Z,47.61
2018-07-07T00:29:28.855Z,45.17
2018-07-07T00:30:29.028Z,50.05
2018-07-07T00:31:29.192Z,44.43
2018-07-07T00:32:29.362Z,45.90
2018-07-07T00:33:29.523Z,58.11
2018-07-07T00:34:29.687Z,53.96
2018-07-07T00:35:29.853Z,66.65
2018-07-07T00:36:30.021Z,45.41
2018-07-07T00:40:12.463Z,55.42
2018-07-07T00:41:12.627Z,56.40
2018-07-07T00:42:12.788Z,43.70
2018-07-07T00:43:12.957Z,47.36
2018-07-07T00:44:13.116Z,60.79
2018-07-07T00:45:13.284Z,60.55
2018-07-07T00:46:13.463Z,56.64
2018-07-07T00:47:13.644Z,53.71
2018-07-07T00:48:13.781Z,65.92
2018-07-07T00:49:14.009Z,65.67
2018-07-07T00:50:14.113Z,53.47
2018-07-07T00:51:14.279Z,53.96
2018-07-07T00:52:14.445Z,52.98
2018-07-07T00:53:14.616Z,52.73
2018-07-07T00:58:15.300Z,52.73
2018-07-07T00:59:15.465Z,65.19
2018-07-07T01:00:15.645Z,53.71
2018-07-07T01:01:15.811Z,62.50
2018-07-07T01:02:15.968Z,49.80
2018-07-07T01:03:16.129Z,45.65
2018-07-07T01:04:16.304Z,56.15
2018-07-07T01:05:16.468Z,53.22
2018-07-07T01:06:16.627Z,62.99
2018-07-07T01:07:16.802Z,52.73
2018-07-07T01:08:16.967Z,53.22
2018-07-07T01:09:18.027Z,53.71
2018-07-07T01:10:17.315Z,53.71
2018-07-07T01:11:17.471Z,52.73
2018-07-07T01:14:59.914Z,65.67
2018-07-07T01:16:00.090Z,46.39
2018-07-07T01:17:00.246Z,62.01
2018-07-07T01:18:00.421Z,48.83
2018-07-07T01:19:00.577Z,51.51
2018-07-07T01:20:00.742Z,58.35
2018-07-07T01:21:00.920Z,46.88
2018-07-07T01:22:01.072Z,50.29
2018-07-07T01:23:01.254Z,43.21
2018-07-07T01:24:01.404Z,53.96
2018-07-07T01:25:01.594Z,48.58
2018-07-07T01:26:01.757Z,42.72
2018-07-07T01:27:01.922Z,53.71
2018-07-07T01:28:02.105Z,61.77
2018-07-07T01:31:44.527Z,46.88
2018-07-07T01:32:44.695Z,46.63
2018-07-07T01:33:44.859Z,49.32
2018-07-07T01:34:45.027Z,60.06
2018-07-07T01:35:45.194Z,51.27
2018-07-07T01:36:45.372Z,59.81
2018-07-07T01:37:45.557Z,65.43
2018-07-07T01:38:45.699Z,53.71
2018-07-07T01:39:45.866Z,54.20
2018-07-07T01:40:46.035Z,62.50
2018-07-07T01:41:46.220Z,55.66
2018-07-07T01:42:46.377Z,53.71
2018-07-07T01:43:46.551Z,53.47
2018-07-07T01:44:46.719Z,53.47
2018-07-07T01:48:29.505Z,53.47
2018-07-07T01:49:29.620Z,59.08
2018-07-07T01:50:29.796Z,63.23
2018-07-07T01:51:29.966Z,59.33
2018-07-07T01:52:30.133Z,53.47
2018-07-07T01:53:30.300Z,64.45
2018-07-07T01:54:30.467Z,66.16
2018-07-07T01:55:30.629Z,48.58
2018-07-07T01:56:30.803Z,72.75
2018-07-07T01:57:30.966Z,70.07
2018-07-07T01:58:31.143Z,63.96
2018-07-07T01:59:31.295Z,79.59
2018-07-07T02:00:31.475Z,57.62
2018-07-07T02:01:31.634Z,63.96
2018-07-07T02:05:14.066Z,51.51
2018-07-07T02:06:14.226Z,45.65
2018-07-07T02:07:14.392Z,43.70
2018-07-07T02:08:14.558Z,41.02
2018-07-07T02:09:14.724Z,64.21
2018-07-07T02:10:14.893Z,48.58
2018-07-07T02:11:15.059Z,54.44
2018-07-07T02:12:15.228Z,51.03
2018-07-07T02:13:15.411Z,44.43
2018-07-07T02:14:15.558Z,44.68
2018-07-07T02:15:15.723Z,45.90
2018-07-07T02:16:15.888Z,61.04
2018-07-07T02:17:16.058Z,57.13
2018-07-07T02:18:16.229Z,61.28
2018-07-07T02:21:58.962Z,65.19
2018-07-07T02:22:59.137Z,46.88
2018-07-07T02:23:59.295Z,47.36
2018-07-07T02:24:59.466Z,52.49
2018-07-07T02:25:59.633Z,51.76
2018-07-07T02:26:59.799Z,55.91
2018-07-07T02:27:59.974Z,43.70
2018-07-07T02:29:00.141Z,48.10
2018-07-07T02:30:00.308Z,42.24
2018-07-07T02:33:43.063Z,56.88
2018-07-07T02:34:43.229Z,58.59
2018-07-07T02:35:43.393Z,66.41
2018-07-07T02:36:43.559Z,56.64
2018-07-07T02:37:43.725Z,62.50
2018-07-07T02:38:43.891Z,47.12
2018-07-07T02:39:44.058Z,49.32
2018-07-07T02:40:44.228Z,53.22
2018-07-07T02:41:44.399Z,50.05
2018-07-07T02:42:44.561Z,45.41
2018-07-07T02:43:44.724Z,45.41
2018-07-07T02:44:44.886Z,47.36
2018-07-07T02:45:45.054Z,54.69
2018-07-07T02:46:45.223Z,66.16
2018-07-07T02:55:36.035Z,52.25
2018-07-07T02:56:38.988Z,53.71
2018-07-07T02:57:36.403Z,56.15
2018-07-07T02:58:36.569Z,64.21
2018-07-07T02:59:36.739Z,64.70
2018-07-07T03:00:36.902Z,63.23
2018-07-07T03:01:37.069Z,70.31
2018-07-07T03:02:39.000Z,73.49
2018-07-07T03:03:37.415Z,77.15
2018-07-07T03:07:09.875Z,65.19
2018-07-07T03:08:10.050Z,61.04
2018-07-07T03:09:10.210Z,61.77
2018-07-07T03:10:10.377Z,57.13
2018-07-07T03:11:10.542Z,63.48
2018-07-07T03:12:10.724Z,58.35
2018-07-07T03:13:10.898Z,56.15
2018-07-07T03:14:11.058Z,54.69
2018-07-07T03:15:11.225Z,57.86
2018-07-07T03:18:53.956Z,70.56
2018-07-07T03:19:54.125Z,63.72
2018-07-07T03:20:54.297Z,57.37
2018-07-07T03:21:54.454Z,54.20
2018-07-07T03:22:54.620Z,55.42
2018-07-07T03:23:54.782Z,50.78
2018-07-07T03:24:54.949Z,51.27
2018-07-07T03:25:55.120Z,75.20
2018-07-07T03:26:55.282Z,67.14
2018-07-07T03:30:38.067Z,64.94
2018-07-07T03:31:38.186Z,67.38
2018-07-07T03:32:38.357Z,52.73
2018-07-07T03:33:38.513Z,60.79
2018-07-07T03:34:38.678Z,65.19
2018-07-07T03:35:38.851Z,68.85
2018-07-07T03:36:39.017Z,79.10
2018-07-07T03:37:39.182Z,53.71
2018-07-07T03:38:39.347Z,73.00
2018-07-07T03:42:21.811Z,52.00
2018-07-07T03:43:21.952Z,52.25
2018-07-07T03:44:22.660Z,52.49
2018-07-07T03:45:22.320Z,59.33
2018-07-07T03:46:22.486Z,51.03
2018-07-07T03:47:22.654Z,56.88
2018-07-07T03:48:22.821Z,62.50
2018-07-07T03:49:23.017Z,66.16
2018-07-07T03:50:23.150Z,62.50
2018-07-07T03:54:05.585Z,59.33
2018-07-07T03:55:05.755Z,61.77
2018-07-07T03:56:05.905Z,66.65
2018-07-07T03:57:06.083Z,57.86
2018-07-07T03:58:06.246Z,61.77
2018-07-07T03:59:06.414Z,68.60
2018-07-07T04:00:06.585Z,60.55
2018-07-07T04:01:06.750Z,68.85
2018-07-07T04:02:06.915Z,73.49
2018-07-07T04:03:07.108Z,70.80
2018-07-07T04:04:07.267Z,71.78
2018-07-07T04:05:07.462Z,67.38
2018-07-07T04:06:07.616Z,73.00
2018-07-07T04:07:07.815Z,60.79
2018-07-07T04:10:50.526Z,51.03
2018-07-07T04:11:50.694Z,61.04
2018-07-07T04:12:50.866Z,51.03
2018-07-07T04:13:51.037Z,48.58
2018-07-07T04:14:51.193Z,49.56
2018-07-07T04:15:51.360Z,55.66
2018-07-07T04:16:51.526Z,66.16
2018-07-07T04:17:51.695Z,65.67
2018-07-07T04:18:51.856Z,63.23
2018-07-07T04:19:52.028Z,63.96
2018-07-07T04:20:52.188Z,60.06
2018-07-07T04:21:52.357Z,58.59
2018-07-07T04:22:52.545Z,58.35
2018-07-07T04:23:52.698Z,55.42
2018-07-07T04:27:35.427Z,66.41
2018-07-07T04:28:35.579Z,68.60
2018-07-07T04:29:35.789Z,67.14
2018-07-07T04:30:35.951Z,57.86
2018-07-07T04:31:36.110Z,80.57
2018-07-07T04:32:36.269Z,74.22
2018-07-07T04:33:36.436Z,62.74
2018-07-07T04:34:36.599Z,64.70
2018-07-07T04:35:36.768Z,57.37
2018-07-07T04:36:36.965Z,49.56
2018-07-07T04:37:37.095Z,54.93
2018-07-07T04:38:37.265Z,52.00
2018-07-07T04:39:37.435Z,55.18
2018-07-07T04:40:37.615Z,68.12
2018-07-07T04:44:20.036Z,51.76
2018-07-07T04:45:20.218Z,55.66
2018-07-07T04:46:20.386Z,64.21
2018-07-07T04:47:20.576Z,62.99
2018-07-07T04:48:20.718Z,62.50
2018-07-07T04:49:20.886Z,54.44
2018-07-07T04:50:21.051Z,49.56
2018-07-07T04:51:21.214Z,62.50
2018-07-07T04:52:21.387Z,62.74
2018-07-07T04:56:03.830Z,55.91
2018-07-07T04:57:03.996Z,56.15
2018-07-07T04:58:04.164Z,65.67
2018-07-07T04:59:04.327Z,63.48
2018-07-07T05:00:04.492Z,66.89
2018-07-07T05:03:36.425Z,71.29
2018-07-07T05:04:36.661Z,68.60
2018-07-07T05:05:44.741Z,67.38
2018-07-07T05:09:09.365Z,64.21
2018-07-07T05:10:09.532Z,60.30
2018-07-07T05:11:09.699Z,64.21
2018-07-07T05:12:09.860Z,55.91
2018-07-07T05:13:10.040Z,68.12
2018-07-07T05:14:10.199Z,80.81
2018-07-07T05:15:10.366Z,59.08
2018-07-07T05:16:10.531Z,74.71
2018-07-07T05:17:10.749Z,84.96
2018-07-07T05:18:10.871Z,64.70
2018-07-07T05:19:11.042Z,63.96
2018-07-07T05:20:11.216Z,72.51
2018-07-07T05:21:19.325Z,68.60
2018-07-07T05:22:11.483Z,66.41
2018-07-07T05:23:11.685Z,69.09
2018-07-07T05:24:11.817Z,63.48
2018-07-07T05:25:19.952Z,69.82
2018-07-07T05:26:12.136Z,78.61
2018-07-07T05:27:12.276Z,76.42
2018-07-07T05:28:12.443Z,65.67
2018-07-07T05:29:12.606Z,70.80
2018-07-07T05:30:12.770Z,80.81
2018-07-07T05:31:12.948Z,85.94
2018-07-07T05:32:13.104Z,72.51
2018-07-07T05:33:13.269Z,81.79
2018-07-07T05:34:13.438Z,63.48
2018-07-07T05:35:13.603Z,84.23
2018-07-07T05:38:56.339Z,73.49
2018-07-07T05:39:56.505Z,79.59
2018-07-07T05:40:56.670Z,62.01
2018-07-07T05:41:56.837Z,68.85
2018-07-07T05:42:57.010Z,71.78
2018-07-07T05:43:57.175Z,59.57
2018-07-07T05:44:57.341Z,60.06
2018-07-07T05:45:57.510Z,67.87
2018-07-07T05:46:57.676Z,58.11
2018-07-07T05:47:57.845Z,54.93
2018-07-07T05:48:58.017Z,65.92
2018-07-07T05:49:58.205Z,60.55
2018-07-07T05:50:58.346Z,64.45
2018-07-07T05:51:58.517Z,63.96
2018-07-07T05:55:41.267Z,66.41
2018-07-07T05:56:41.427Z,65.19
2018-07-07T05:57:41.593Z,72.27
2018-07-07T05:58:41.762Z,73.97
2018-07-07T05:59:41.926Z,67.14
2018-07-07T06:00:42.137Z,75.44
2018-07-07T06:01:42.247Z,68.85
2018-07-07T06:02:42.429Z,62.01
2018-07-07T06:03:42.585Z,64.45
2018-07-07T06:04:42.740Z,63.72
2018-07-07T06:05:42.926Z,70.31
2018-07-07T06:06:43.088Z,63.72
2018-07-07T06:07:43.260Z,69.58
2018-07-07T06:08:43.431Z,78.37
2018-07-07T06:12:25.852Z,65.19
2018-07-07T06:13:26.017Z,68.12
2018-07-07T06:14:26.238Z,64.45
2018-07-07T06:15:26.348Z,79.83
2018-07-07T06:16:26.516Z,61.04
2018-07-07T06:17:26.679Z,71.53
2018-07-07T06:18:26.889Z,67.63
2018-07-07T06:19:27.015Z,70.56
2018-07-07T06:20:27.185Z,71.53
2018-07-07T06:26:57.992Z,64.21
2018-07-07T06:27:58.157Z,66.89
2018-07-07T06:28:58.321Z,63.48
2018-07-07T06:29:58.483Z,72.02
2018-07-07T06:31:06.083Z,75.68
2018-07-07T06:31:58.867Z,71.78
2018-07-07T06:32:59.034Z,69.09
2018-07-07T06:33:59.207Z,71.29
2018-07-07T06:34:59.370Z,74.95
2018-07-07T06:35:59.533Z,71.53
2018-07-07T06:36:59.695Z,74.71
2018-07-07T06:37:59.861Z,73.49
2018-07-07T06:39:00.049Z,77.64
2018-07-07T06:40:07.375Z,75.44
2018-07-07T06:41:00.413Z,64.45
2018-07-07T06:42:00.586Z,84.47
2018-07-07T06:43:00.762Z,73.73
2018-07-07T06:44:00.927Z,82.52
2018-07-07T06:45:01.092Z,67.63
2018-07-07T06:46:01.264Z,66.65
2018-07-07T06:47:01.436Z,64.70
2018-07-07T06:48:01.602Z,72.51
2018-07-07T06:49:01.767Z,68.85
2018-07-07T06:50:01.939Z,70.31
2018-07-07T06:51:02.108Z,70.31
2018-07-07T06:52:02.297Z,68.12
2018-07-07T06:53:02.462Z,73.97
2018-07-07T06:54:02.762Z,57.86
2018-07-07T06:57:45.065Z,69.58
2018-07-07T06:58:45.634Z,75.68
2018-07-07T06:59:53.344Z,66.16
2018-07-07T07:00:45.449Z,76.42
2018-07-07T07:01:45.609Z,78.61
2018-07-07T07:02:45.780Z,67.14
2018-07-07T07:03:45.949Z,78.37
2018-07-07T07:04:46.126Z,66.16
2018-07-07T07:05:46.298Z,61.77
2018-07-07T07:06:46.473Z,62.01
2018-07-07T07:07:46.641Z,65.43
2018-07-07T07:08:46.804Z,63.48
2018-07-07T07:09:49.946Z,70.56
2018-07-07T07:10:47.104Z,68.36
2018-07-07T07:11:47.276Z,62.99
2018-07-07T07:12:47.447Z,67.63
2018-07-07T07:13:47.611Z,63.96
2018-07-07T07:14:47.776Z,60.30
2018-07-07T07:18:30.158Z,69.58
2018-07-07T07:19:30.329Z,68.12
2018-07-07T07:20:30.515Z,67.14
2018-07-07T07:21:30.688Z,75.20
2018-07-07T07:22:30.846Z,69.82
2018-07-07T07:23:31.067Z,70.07
2018-07-07T07:24:31.192Z,64.70
2018-07-07T07:25:39.336Z,71.04
2018-07-07T07:26:32.153Z,73.24
2018-07-07T07:27:32.611Z,78.13
2018-07-07T07:28:31.783Z,65.19
2018-07-07T07:29:31.949Z,68.12
2018-07-07T07:30:32.117Z,73.97
2018-07-07T07:31:32.290Z,70.07
2018-07-07T07:32:32.452Z,64.94
2018-07-07T07:33:32.622Z,81.79
2018-07-07T07:34:32.792Z,76.90
2018-07-07T07:35:33.564Z,71.78
2018-07-07T07:36:33.158Z,72.02
2018-07-07T07:37:33.319Z,71.29
2018-07-07T07:38:33.484Z,71.78
2018-07-07T07:39:33.648Z,73.49
2018-07-07T07:40:42.079Z,73.24
2018-07-07T07:41:33.998Z,65.67
2018-07-07T07:42:34.168Z,72.51
2018-07-07T07:43:34.326Z,69.58
2018-07-07T07:44:34.493Z,64.45
2018-07-07T07:45:34.662Z,67.87
2018-07-07T07:46:34.835Z,62.26
2018-07-07T07:47:34.998Z,68.12
2018-07-07T07:48:35.164Z,69.58
2018-07-07T07:49:35.335Z,67.87
2018-07-07T07:50:43.180Z,77.39
2018-07-07T07:51:35.733Z,67.38
2018-07-07T07:52:35.907Z,71.78
2018-07-07T07:53:36.077Z,66.65
2018-07-07T07:54:36.243Z,69.34
2018-07-07T07:55:36.436Z,68.85
2018-07-07T07:56:36.645Z,74.71
2018-07-07T07:57:36.779Z,71.78
2018-07-07T07:58:37.076Z,64.94
2018-07-07T07:59:37.146Z,70.31
2018-07-07T08:00:37.315Z,70.80
2018-07-07T08:01:45.136Z,65.67
2018-07-07T08:02:38.177Z,70.31
2018-07-07T08:03:37.845Z,70.07
2018-07-07T08:04:38.018Z,78.37
2018-07-07T08:05:38.183Z,64.94
2018-07-07T08:06:38.352Z,63.96
2018-07-07T08:07:38.522Z,66.89
2018-07-07T08:08:38.730Z,61.77
2018-07-07T08:09:38.861Z,62.99
2018-07-07T08:10:39.032Z,70.80
2018-07-07T08:11:39.196Z,71.04
2018-07-07T08:16:19.963Z,69.34
2018-07-07T08:17:20.134Z,69.58
2018-07-07T08:18:20.306Z,65.19
2018-07-07T08:19:20.478Z,64.70
2018-07-07T08:20:20.656Z,67.14
2018-07-07T08:21:20.820Z,69.09
2018-07-07T08:22:20.993Z,63.48
2018-07-07T08:23:22.030Z,72.51
2018-07-07T08:24:21.322Z,71.78
2018-07-07T08:25:21.485Z,65.43
2018-07-07T08:26:21.673Z,70.07
2018-07-07T08:27:21.808Z,63.48
2018-07-07T08:28:21.992Z,64.45
2018-07-07T08:29:22.175Z,65.67
2018-07-07T08:33:04.911Z,71.53
2018-07-07T08:34:05.080Z,65.43
2018-07-07T08:35:05.257Z,69.82
2018-07-07T08:36:05.427Z,78.37
2018-07-07T08:37:05.598Z,68.36
2018-07-07T08:38:05.766Z,74.22
2018-07-07T08:39:05.940Z,67.87
2018-07-07T08:40:13.769Z,72.27
2018-07-07T08:41:06.309Z,65.92
2018-07-07T08:42:06.506Z,64.70
2018-07-07T08:43:06.652Z,70.31
2018-07-07T08:44:06.822Z,71.04
2018-07-07T08:45:06.994Z,72.27
2018-07-07T08:46:07.163Z,76.90
2018-07-07T08:47:07.340Z,61.77
2018-07-07T08:48:07.509Z,66.89
2018-07-07T08:49:07.668Z,66.89
2018-07-07T08:50:08.400Z,77.64
2018-07-07T08:51:08.034Z,69.34
2018-07-07T08:52:08.203Z,73.00
2018-07-07T08:53:08.376Z,69.34
2018-07-07T08:54:08.544Z,62.74
2018-07-07T08:57:51.288Z,65.67
2018-07-07T08:58:51.470Z,70.31
2018-07-07T08:59:51.631Z,77.64
2018-07-07T09:00:51.836Z,73.97
2018-07-07T09:01:51.986Z,77.15
2018-07-07T09:02:52.157Z,68.12
2018-07-07T09:03:52.336Z,74.71
2018-07-07T09:04:52.507Z,66.89
2018-07-07T09:05:52.670Z,66.89
2018-07-07T09:06:52.840Z,69.82
2018-07-07T09:07:53.009Z,71.04
2018-07-07T09:08:53.181Z,80.32
2018-07-07T09:09:53.354Z,75.68
2018-07-07T09:10:53.527Z,70.56
2018-07-07T09:14:36.275Z,68.85
2018-07-07T09:15:36.459Z,79.10
2018-07-07T09:16:36.634Z,66.89
2018-07-07T09:17:36.794Z,68.60
2018-07-07T09:18:36.973Z,66.65
2018-07-07T09:19:37.142Z,68.85
2018-07-07T09:20:44.475Z,73.49
2018-07-07T09:21:37.519Z,77.15
2018-07-07T09:22:37.731Z,80.08
2018-07-07T09:23:37.853Z,77.88
2018-07-07T09:24:38.086Z,74.95
2018-07-07T09:25:46.235Z,65.67
2018-07-07T09:26:38.422Z,65.43
2018-07-07T09:27:38.567Z,69.82
2018-07-07T09:28:38.756Z,72.02
2018-07-07T09:29:38.936Z,71.78
2018-07-07T09:30:39.130Z,71.29
2018-07-07T09:31:39.296Z,78.61
2018-07-07T09:32:39.455Z,73.24
2018-07-07T09:33:39.625Z,88.87
2018-07-07T09:34:39.800Z,81.05
2018-07-07T09:35:39.966Z,68.85
2018-07-07T09:36:40.135Z,83.98
2018-07-07T09:37:40.305Z,68.60
2018-07-07T09:38:40.512Z,64.70
2018-07-07T09:39:40.670Z,73.24
2018-07-07T09:40:40.837Z,80.57
2018-07-07T09:44:23.316Z,75.20
2018-07-07T09:45:23.487Z,66.65
2018-07-07T09:46:23.664Z,82.28
2018-07-07T09:47:23.837Z,75.68
2018-07-07T09:48:24.012Z,76.17
2018-07-07T09:49:24.171Z,74.71
2018-07-07T09:50:24.351Z,78.86
2018-07-07T09:51:24.526Z,76.42
2018-07-07T09:52:24.700Z,76.42
2018-07-07T09:53:24.869Z,74.22
2018-07-07T09:54:25.041Z,76.42
2018-07-07T09:55:25.211Z,73.97
2018-07-07T09:56:26.161Z,73.97
2018-07-07T09:57:33.224Z,74.22
2018-07-07T09:58:25.780Z,72.75
2018-07-07T09:59:25.950Z,76.90
2018-07-07T10:00:26.121Z,78.13
2018-07-07T10:01:33.766Z,75.93
2018-07-07T10:02:26.432Z,76.66
2018-07-07T10:03:26.621Z,72.27
2018-07-07T10:04:26.787Z,76.17
2018-07-07T10:05:26.958Z,73.00
2018-07-07T10:06:27.125Z,77.39
2018-07-07T10:07:27.337Z,74.71
2018-07-07T10:08:27.528Z,75.20
2018-07-07T10:09:27.698Z,76.17
2018-07-07T10:10:27.885Z,75.20
2018-07-07T10:11:28.057Z,73.49
2018-07-07T10:12:28.230Z,70.80
2018-07-07T10:13:28.414Z,74.71
2018-07-07T10:14:28.574Z,77.15
2018-07-07T10:15:28.733Z,70.80
2018-07-07T10:19:22.092Z,71.04
2018-07-07T10:20:21.516Z,69.82
2018-07-07T10:21:29.149Z,67.63
2018-07-07T10:22:21.816Z,77.15
2018-07-07T10:23:23.607Z,68.12
2018-07-07T10:24:22.165Z,72.51
2018-07-07T10:25:24.104Z,76.42
2018-07-07T10:26:22.574Z,65.67
2018-07-07T10:27:22.691Z,69.82
2018-07-07T10:28:23.146Z,65.43
2018-07-07T10:29:22.993Z,74.22
2018-07-07T10:30:23.168Z,73.49
2018-07-07T10:35:49.096Z,71.78
2018-07-07T10:36:52.159Z,63.48
2018-07-07T10:37:49.459Z,69.58
2018-07-07T10:38:49.625Z,70.56
2018-07-07T10:39:49.792Z,72.75
2018-07-07T10:40:49.955Z,72.27
2018-07-07T10:41:50.145Z,69.34
2018-07-07T10:42:50.315Z,76.42
2018-07-07T10:43:50.584Z,70.80
2018-07-07T10:51:11.403Z,71.53
2018-07-07T10:52:12.109Z,73.00
2018-07-07T10:53:11.779Z,82.03
2018-07-07T10:54:11.950Z,62.50
2018-07-07T10:55:12.118Z,68.85
2018-07-07T10:56:12.287Z,64.21
2018-07-07T10:57:12.473Z,65.92
2018-07-07T10:58:12.650Z,64.94
2018-07-07T10:59:20.485Z,71.04
2018-07-07T11:00:13.014Z,68.60
2018-07-07T11:01:13.201Z,67.87
2018-07-07T11:02:13.366Z,72.51
2018-07-07T11:03:13.528Z,66.16
2018-07-07T11:04:13.729Z,80.32
2018-07-07T11:05:13.887Z,70.56
2018-07-07T11:06:14.060Z,70.07
2018-07-07T11:07:14.235Z,69.58
2018-07-07T11:08:14.408Z,71.29
2018-07-07T11:09:14.582Z,65.92
2018-07-07T11:10:14.754Z,70.07
2018-07-07T11:11:14.925Z,68.36
2018-07-07T11:12:15.097Z,67.38
2018-07-07T11:13:15.270Z,70.80
2018-07-07T11:16:57.745Z,67.87
2018-07-07T11:17:57.908Z,70.56
2018-07-07T11:18:58.083Z,79.35
2018-07-07T11:20:06.786Z,75.93
2018-07-07T11:20:58.702Z,69.58
2018-07-07T11:21:59.056Z,76.42
2018-07-07T11:22:58.781Z,80.08
2018-07-07T11:23:59.013Z,67.14
2018-07-07T11:24:59.137Z,66.16
2018-07-07T11:26:07.708Z,69.82
2018-07-07T11:26:59.492Z,70.80
2018-07-07T11:28:00.645Z,71.53
2018-07-07T11:29:01.648Z,67.87
2018-07-07T11:29:59.945Z,68.85
2018-07-07T11:31:00.121Z,73.00
2018-07-07T11:32:00.297Z,79.59
2018-07-07T11:33:00.465Z,69.82
2018-07-07T11:34:00.632Z,68.60
2018-07-07T11:35:00.799Z,73.49
2018-07-07T11:36:00.983Z,73.00
2018-07-07T11:37:01.190Z,73.49
2018-07-07T11:38:01.341Z,67.14
2018-07-07T11:39:01.511Z,74.22
2018-07-07T11:40:01.681Z,68.12
2018-07-07T11:43:44.061Z,68.12
2018-07-07T11:44:44.237Z,73.49
2018-07-07T11:45:44.412Z,73.24
2018-07-07T11:46:44.622Z,69.34
2018-07-07T11:47:44.954Z,73.49
2018-07-07T11:48:45.024Z,72.51
2018-07-07T11:49:45.181Z,72.02
2018-07-07T11:50:45.531Z,69.09
2018-07-07T11:52:12.807Z,66.16
2018-07-07T11:53:46.029Z,65.19
2018-07-07T11:54:46.070Z,71.53
2018-07-07T11:55:46.297Z,67.87
2018-07-07T11:56:46.453Z,71.29
2018-07-07T11:57:47.640Z,64.45
2018-07-07T11:58:46.813Z,73.97
2018-07-07T11:59:46.886Z,68.85
2018-07-07T12:00:47.182Z,73.73
2018-07-07T12:01:48.121Z,71.29
2018-07-07T12:02:47.517Z,66.16
2018-07-07T12:03:47.579Z,76.66
2018-07-07T12:04:47.777Z,79.35
2018-07-07T12:05:47.939Z,68.85
2018-07-07T12:06:48.169Z,72.51
2018-07-07T12:08:00.711Z,72.75
2018-07-07T12:08:48.478Z,63.48
2018-07-07T12:10:03.246Z,68.60
2018-07-07T12:10:49.516Z,67.14
2018-07-07T12:11:49.171Z,67.63
2018-07-07T12:12:49.279Z,64.45
2018-07-07T12:13:50.453Z,74.22
2018-07-07T12:14:49.648Z,73.00
2018-07-07T12:15:49.894Z,66.65
2018-07-07T12:16:50.035Z,80.08
2018-07-07T12:17:50.186Z,71.78
2018-07-07T12:18:51.049Z,79.35
2018-07-07T12:19:50.739Z,77.39
2018-07-07T12:20:50.776Z,77.15
2018-07-07T12:21:50.968Z,71.29
2018-07-07T12:22:51.039Z,72.02
2018-07-07T12:23:51.316Z,76.66
2018-07-07T12:24:58.964Z,69.82
2018-07-07T12:25:51.512Z,63.96
2018-07-07T12:26:51.684Z,78.13
2018-07-07T12:27:51.840Z,70.80
2018-07-07T12:28:59.919Z,74.46
2018-07-07T12:29:52.236Z,75.44
2018-07-07T12:30:52.403Z,74.95
2018-07-07T12:31:52.571Z,73.73
2018-07-07T12:32:53.096Z,78.61
2018-07-07T12:33:53.426Z,68.12
2018-07-07T12:34:53.073Z,67.63
2018-07-07T12:35:53.241Z,75.44
2018-07-07T12:36:53.413Z,87.89
2018-07-07T12:37:53.586Z,75.20
2018-07-07T12:38:53.762Z,64.94
2018-07-07T12:39:53.936Z,72.75
2018-07-07T12:40:54.148Z,71.04
2018-07-07T12:41:54.284Z,78.37
2018-07-07T12:42:54.464Z,70.31
2018-07-07T12:46:37.229Z,73.49
2018-07-07T12:47:37.417Z,79.10
2018-07-07T12:48:37.592Z,70.56
2018-07-07T12:49:37.762Z,79.10
2018-07-07T12:50:38.868Z,75.68
2018-07-07T12:51:38.104Z,70.80
2018-07-07T12:52:38.271Z,69.34
2018-07-07T12:53:46.100Z,71.53
2018-07-07T12:54:38.675Z,68.36
2018-07-07T12:55:38.838Z,77.39
2018-07-07T12:56:39.021Z,70.56
2018-07-07T12:57:39.219Z,75.20
2018-07-07T12:58:47.716Z,72.02
2018-07-07T12:59:39.584Z,73.49
2018-07-07T13:00:39.712Z,75.68
2018-07-07T13:01:39.914Z,80.57
2018-07-07T13:02:40.077Z,76.17
2018-07-07T13:03:40.245Z,70.31
2018-07-07T13:04:40.415Z,72.51
2018-07-07T13:05:40.590Z,71.29
2018-07-07T13:06:40.763Z,76.90
2018-07-07T13:07:40.936Z,69.09
2018-07-07T13:08:41.104Z,69.82
2018-07-07T13:09:41.280Z,72.75
2018-07-07T13:10:41.464Z,72.51
2018-07-07T13:11:41.621Z,75.20
2018-07-07T13:12:41.803Z,69.34
2018-07-07T13:13:42.024Z,74.95
2018-07-07T13:17:24.454Z,71.29
2018-07-07T13:18:24.622Z,73.49
2018-07-07T13:19:24.865Z,70.80
2018-07-07T13:20:25.067Z,66.41
2018-07-07T13:21:25.177Z,70.56
2018-07-07T13:22:25.540Z,75.44
2018-07-07T13:26:16.069Z,70.07
2018-07-07T13:27:23.286Z,73.97
2018-07-07T13:28:16.325Z,74.46
2018-07-07T13:29:16.492Z,72.51
2018-07-07T13:30:16.670Z,70.80
2018-07-07T13:31:17.653Z,77.39
2018-07-07T13:32:17.060Z,68.12
2018-07-07T13:33:17.247Z,67.14
2018-07-07T13:34:17.406Z,66.41
2018-07-07T13:35:17.578Z,72.02
2018-07-07T13:36:17.750Z,70.56
2018-07-07T13:37:17.928Z,67.38
2018-07-07T13:38:18.100Z,66.65
2018-07-07T13:39:18.268Z,66.65
2018-07-07T13:40:18.440Z,77.64
2018-07-07T13:41:18.612Z,77.15
2018-07-07T13:45:01.065Z,67.14
2018-07-07T13:46:01.239Z,76.42
2018-07-07T13:47:01.411Z,63.48
2018-07-07T13:48:01.592Z,71.04
2018-07-07T13:49:01.755Z,62.26
2018-07-07T13:50:01.939Z,63.23
2018-07-07T13:51:02.094Z,75.20
2018-07-07T13:52:02.330Z,67.38
2018-07-07T13:53:02.377Z,63.23
2018-07-07T13:54:10.648Z,70.07
2018-07-07T13:55:02.758Z,65.19
2018-07-07T13:56:02.955Z,74.95
2018-07-07T13:57:03.173Z,64.45
2018-07-07T13:58:03.345Z,74.71
2018-07-07T13:59:03.515Z,77.15
2018-07-07T14:00:03.687Z,72.02
2018-07-07T14:01:03.859Z,81.05
2018-07-07T14:02:04.047Z,73.97
2018-07-07T14:03:04.218Z,70.56
2018-07-07T14:04:04.382Z,69.82
2018-07-07T14:05:04.554Z,66.89
2018-07-07T14:06:04.731Z,70.31
2018-07-07T14:07:04.901Z,71.78
2018-07-07T14:08:05.073Z,66.16
2018-07-07T14:12:37.879Z,67.38
2018-07-07T14:13:38.052Z,76.90
2018-07-07T14:14:38.239Z,75.68
2018-07-07T14:15:38.407Z,77.64
2018-07-07T14:16:38.576Z,70.56
2018-07-07T14:17:38.765Z,71.78
2018-07-07T14:18:40.401Z,66.89
2018-07-07T14:19:40.693Z,74.95
2018-07-07T14:20:46.717Z,65.19
2018-07-07T14:21:39.416Z,73.00
2018-07-07T14:22:39.566Z,68.36
2018-07-07T14:23:39.737Z,77.39
2018-07-07T14:24:39.914Z,66.65
2018-07-07T14:25:40.089Z,69.58
2018-07-07T14:26:40.259Z,66.89
2018-07-07T14:27:40.431Z,65.19
2018-07-07T14:28:40.602Z,65.43
2018-07-07T14:29:40.779Z,65.67
2018-07-07T14:30:40.984Z,80.57
2018-07-07T14:31:41.150Z,70.80
2018-07-07T14:32:41.296Z,75.68
2018-07-07T14:33:41.464Z,76.17
2018-07-07T14:34:41.633Z,66.41
2018-07-07T14:35:50.692Z,69.82
2018-07-07T14:36:41.978Z,73.24
2018-07-07T14:37:42.161Z,73.97
2018-07-07T14:38:43.020Z,68.12
2018-07-07T14:39:50.467Z,75.44
2018-07-07T14:40:42.634Z,70.80
2018-07-07T14:41:42.808Z,66.65
2018-07-07T14:42:42.987Z,65.19
2018-07-07T14:43:43.159Z,64.70
2018-07-07T14:44:43.329Z,72.51
2018-07-07T14:45:43.502Z,68.60
2018-07-07T14:46:43.690Z,66.41
2018-07-07T14:47:43.864Z,68.12
2018-07-07T14:48:44.040Z,67.14
2018-07-07T14:49:44.213Z,69.58
2018-07-07T14:50:44.395Z,69.82
2018-07-07T14:51:44.570Z,65.67
2018-07-07T14:52:44.741Z,71.53
2018-07-07T14:53:44.918Z,68.12
2018-07-07T14:58:55.827Z,69.09
2018-07-07T14:59:55.936Z,77.39
2018-07-07T15:00:56.081Z,73.49
2018-07-07T15:01:56.231Z,71.78
2018-07-07T15:02:58.294Z,97.17
2018-07-07T15:03:56.616Z,69.09
2018-07-07T15:04:59.278Z,64.70
2018-07-07T15:05:56.952Z,68.60
2018-07-07T15:06:57.134Z,62.50
2018-07-07T15:07:57.314Z,78.86
2018-07-07T15:08:57.470Z,76.17
2018-07-07T15:09:57.704Z,64.70
2018-07-07T15:10:57.809Z,58.35
2018-07-07T15:11:58.042Z,64.70